Time;durP1;ratioP1;P1;durP2;ratioP2;P2;SDS_P1;SDS_P2;PMS_P1;PMS_P2;Temp;Humidity;BMP_temperature;BMP_pressure;BME280_temperature;BME280_humidity;BME280_pressure;Samples;Min_cycle;Max_cycle;Signal;HPM_P1;HPM_P2
2022/03/22 00:00:39;;;;;;;167.40;64.00;;;;;;;-0.62;46.32;100737.64;107774;1284;22569;-74
2022/03/22 00:03:06;;;;;;;145.20;57.00;;;;;;;-0.66;46.39;100740.17;107749;1284;22595;-76
2022/03/22 00:05:34;;;;;;;141.20;53.40;;;;;;;-0.69;46.45;100738.41;107747;1284;25479;-76
2022/03/22 00:08:03;;;;;;;161.30;58.40;;;;;;;-0.71;46.37;100736.15;107744;1285;22570;-74
2022/03/22 00:10:30;;;;;;;149.30;57.30;;;;;;;-0.74;46.53;100735.44;107742;1284;22672;-78
2022/03/22 00:12:57;;;;;;;139.60;54.70;;;;;;;-0.76;46.48;100735.06;107736;1285;22716;-74
2022/03/22 00:15:24;;;;;;;152.30;55.90;;;;;;;-0.79;46.58;100733.81;107730;1284;22563;-78
2022/03/22 00:17:52;;;;;;;141.80;55.50;;;;;;;-0.81;46.68;100730.20;107736;1284;25536;-78
2022/03/22 00:20:19;;;;;;;153.50;56.60;;;;;;;-0.85;46.62;100728.95;107762;1284;22691;-77
2022/03/22 00:22:48;;;;;;;184.80;63.20;;;;;;;-0.89;46.65;100727.52;107730;1284;22594;-79
2022/03/22 00:25:18;;;;;;;187.70;65.70;;;;;;;-0.91;46.72;100725.63;107710;1284;24280;-78
2022/03/22 00:27:55;;;;;;;185.00;64.20;;;;;;;-0.94;47.40;100725.21;107755;1284;22556;-76
2022/03/22 00:30:28;;;;;;;175.40;60.40;;;;;;;-0.96;47.13;100723.98;107742;1284;24115;-78
2022/03/22 00:32:57;;;;;;;167.60;58.60;;;;;;;-0.98;47.62;100725.15;107756;1284;22552;-73
2022/03/22 00:35:26;;;;;;;168.20;60.50;;;;;;;-1.02;47.14;100725.96;107761;1284;22629;-77
2022/03/22 00:37:56;;;;;;;182.80;62.30;;;;;;;-1.06;47.72;100724.02;107709;1284;22576;-78
2022/03/22 00:40:25;;;;;;;176.60;62.60;;;;;;;-1.09;47.53;100723.48;107458;1284;22796;-78
2022/03/22 00:42:53;;;;;;;176.10;63.00;;;;;;;-1.11;47.44;100723.95;107766;1284;22583;-75
2022/03/22 00:45:23;;;;;;;186.90;61.40;;;;;;;-1.13;47.61;100726.82;107787;1284;22578;-76
2022/03/22 00:47:52;;;;;;;181.90;61.70;;;;;;;-1.15;47.49;100726.11;107762;1284;22562;-74
2022/03/22 00:50:22;;;;;;;179.40;60.30;;;;;;;-1.18;47.56;100723.69;107566;1284;24449;-75
2022/03/22 00:52:49;;;;;;;173.60;57.90;;;;;;;-1.19;47.67;100719.23;107471;1284;22573;-77
2022/03/22 00:55:16;;;;;;;166.10;59.40;;;;;;;-1.20;47.72;100716.81;107483;1284;22561;-72
2022/03/22 00:57:44;;;;;;;162.80;60.50;;;;;;;-1.21;47.83;100716.27;107503;1282;22632;-76
2022/03/22 01:00:13;;;;;;;155.20;60.90;;;;;;;-1.23;48.09;100711.80;107474;1284;24277;-77
2022/03/22 01:02:43;;;;;;;170.60;62.00;;;;;;;-1.24;48.14;100711.42;107512;1284;22566;-82
2022/03/22 01:05:13;;;;;;;160.00;59.60;;;;;;;-1.25;48.27;100708.34;107479;1284;22910;-77
2022/03/22 01:07:41;;;;;;;168.50;60.70;;;;;;;-1.26;48.27;100709.52;107474;1284;22728;-73
2022/03/22 01:10:10;;;;;;;176.10;60.90;;;;;;;-1.28;49.02;100707.27;107477;1284;22727;-73
2022/03/22 01:12:39;;;;;;;176.00;64.40;;;;;;;-1.30;48.73;100704.85;107523;1284;22543;-75
2022/03/22 01:15:10;;;;;;;184.70;63.80;;;;;;;-1.31;48.50;100702.77;107469;1284;22603;-73
2022/03/22 01:17:37;;;;;;;191.30;67.20;;;;;;;-1.33;48.55;100702.73;107495;1284;22635;-73
2022/03/22 01:20:06;;;;;;;215.00;75.80;;;;;;;-1.34;48.58;100699.48;107499;1284;22628;-70
2022/03/22 01:22:33;;;;;;;200.40;71.10;;;;;;;-1.34;48.51;100701.36;107537;1284;22591;-77
2022/03/22 01:25:00;;;;;;;161.80;64.30;;;;;;;-1.35;48.59;100701.54;107521;1284;22553;-76
2022/03/22 01:27:27;;;;;;;119.30;51.30;;;;;;;-1.36;48.77;100703.73;107510;1283;22556;-74
2022/03/22 01:29:55;;;;;;;125.70;51.00;;;;;;;-1.37;48.89;100704.40;107460;1284;22595;-78
2022/03/22 01:32:22;;;;;;;108.00;46.10;;;;;;;-1.40;48.72;100706.22;107199;1285;22673;-74
2022/03/22 01:34:49;;;;;;;117.30;44.30;;;;;;;-1.43;48.90;100707.55;107489;1284;24254;-76
2022/03/22 01:37:16;;;;;;;98.00;41.00;;;;;;;-1.45;49.24;100709.23;107509;1284;22546;-76
2022/03/22 01:39:43;;;;;;;101.80;39.40;;;;;;;-1.48;50.26;100710.02;107471;1284;25569;-71
2022/03/22 01:42:11;;;;;;;116.40;46.40;;;;;;;-1.50;49.48;100712.56;107475;1284;24437;-72
2022/03/22 01:44:38;;;;;;;143.60;50.60;;;;;;;-1.52;49.14;100711.50;107055;1284;580120;-76
2022/03/22 01:47:05;;;;;;;147.70;54.10;;;;;;;-1.55;49.26;100713.17;107504;1284;22565;-74
2022/03/22 01:49:33;;;;;;;153.80;53.00;;;;;;;-1.57;49.31;100711.24;107465;1284;22716;-78
2022/03/22 01:52:01;;;;;;;121.00;44.90;;;;;;;-1.61;49.29;100711.52;107501;1284;22647;-74
2022/03/22 01:54:28;;;;;;;103.00;40.80;;;;;;;-1.65;49.35;100710.45;107465;1281;22616;-77
2022/03/22 01:56:56;;;;;;;92.60;36.30;;;;;;;-1.66;49.76;100710.58;107492;1284;25335;-78
2022/03/22 01:59:23;;;;;;;87.60;35.80;;;;;;;-1.69;49.54;100709.16;107503;1284;22599;-75
2022/03/22 02:07:22;;;;;;;77.10;31.50;;;;;;;-1.76;49.90;100711.26;107480;1284;22701;-77
2022/03/22 02:09:49;;;;;;;83.40;35.10;;;;;;;-1.78;49.68;100707.80;107480;1284;22647;-80
2022/03/22 02:12:16;;;;;;;74.40;32.50;;;;;;;-1.81;49.61;100708.62;107519;1285;22555;-78
2022/03/22 02:14:43;;;;;;;82.20;34.30;;;;;;;-1.86;49.86;100704.77;107498;1285;22684;-76
2022/03/22 02:17:10;;;;;;;92.10;37.20;;;;;;;-1.90;50.07;100702.65;107498;1284;22553;-75
2022/03/22 02:19:41;;;;;;;93.30;37.50;;;;;;;-1.91;50.32;100705.02;107487;1284;22557;-73
2022/03/22 02:22:12;;;;;;;93.40;37.70;;;;;;;-1.93;50.28;100699.19;107602;1284;22563;-75
2022/03/22 02:24:39;;;;;;;118.80;48.40;;;;;;;-1.96;50.26;100702.20;107532;1285;22670;-75
2022/03/22 02:27:07;;;;;;;102.40;42.30;;;;;;;-2.00;50.37;100702.65;107462;1284;22556;-80
2022/03/22 02:29:35;;;;;;;83.80;35.30;;;;;;;-2.02;50.55;100698.34;107484;1285;22552;-75
2022/03/22 02:32:04;;;;;;;77.80;33.60;;;;;;;-2.04;50.67;100697.61;107772;1284;22551;-79
2022/03/22 02:34:31;;;;;;;72.50;32.50;;;;;;;-2.07;50.92;100696.55;107612;1284;24455;-78
2022/03/22 02:36:58;;;;;;;81.30;35.80;;;;;;;-2.10;51.40;100696.83;107502;1285;22557;-74
2022/03/22 02:39:25;;;;;;;84.60;34.50;;;;;;;-2.12;51.27;100694.89;107493;1285;22622;-80
2022/03/22 02:41:52;;;;;;;86.60;37.70;;;;;;;-2.13;51.26;100696.92;107479;1284;23856;-75
2022/03/22 02:44:19;;;;;;;90.50;40.50;;;;;;;-2.16;51.37;100697.41;107507;1284;22791;-76
2022/03/22 02:46:47;;;;;;;136.20;55.90;;;;;;;-2.20;51.91;100701.75;107503;1284;22580;-77
2022/03/22 02:49:14;;;;;;;131.50;54.70;;;;;;;-2.22;52.31;100699.30;107466;1285;22716;-74
2022/03/22 02:51:41;;;;;;;141.10;57.30;;;;;;;-2.21;52.93;100700.01;107475;1284;25732;-74
2022/03/22 02:54:08;;;;;;;141.30;57.20;;;;;;;-2.21;53.90;100699.69;107520;1284;22649;-76
2022/03/22 02:56:35;;;;;;;141.50;57.90;;;;;;;-2.21;54.35;100701.36;107489;1285;22780;-75
2022/03/22 02:59:02;;;;;;;138.00;55.20;;;;;;;-2.23;53.95;100702.70;107520;1284;22547;-79
2022/03/22 03:01:32;;;;;;;137.30;56.90;;;;;;;-2.24;53.74;100704.41;107522;1284;22546;-75
2022/03/22 03:04:00;;;;;;;135.90;55.90;;;;;;;-2.28;54.04;100704.67;107473;1284;22564;-74
2022/03/22 03:06:30;;;;;;;127.80;52.70;;;;;;;-2.30;53.42;100704.46;107517;1284;22536;-77
2022/03/22 03:08:59;;;;;;;137.00;53.60;;;;;;;-2.32;53.68;100703.38;107493;1284;22719;-74
2022/03/22 03:11:26;;;;;;;125.50;52.70;;;;;;;-2.34;53.03;100703.36;107511;1284;22778;-71
2022/03/22 03:16:39;;;;;;;125.70;50.00;;;;;;;-2.38;54.25;100710.11;107482;1284;22613;-73
2022/03/22 03:19:07;;;;;;;125.40;49.30;;;;;;;-2.40;53.91;100708.19;107468;1284;22570;-77
2022/03/22 03:21:34;;;;;;;120.50;46.70;;;;;;;-2.41;53.36;100711.75;107515;1284;22784;-75
2022/03/22 03:24:01;;;;;;;116.10;45.40;;;;;;;-2.42;52.98;100711.06;107694;1284;24365;-76
2022/03/22 03:26:28;;;;;;;99.50;42.00;;;;;;;-2.45;52.92;100708.77;107501;1284;22556;-76
2022/03/22 03:28:55;;;;;;;92.30;38.60;;;;;;;-2.49;53.03;100711.91;107509;1284;22556;-72
2022/03/22 03:31:22;;;;;;;97.80;39.80;;;;;;;-2.51;52.70;100713.94;107489;1284;22574;-77
2022/03/22 03:33:49;;;;;;;94.20;39.50;;;;;;;-2.53;52.90;100711.16;107500;1284;25497;-73
2022/03/22 03:36:16;;;;;;;93.50;37.70;;;;;;;-2.55;52.91;100713.50;107491;1284;22626;-78
2022/03/22 03:38:43;;;;;;;95.20;37.30;;;;;;;-2.58;52.98;100713.61;107478;1284;22546;-74
2022/03/22 03:43:57;;;;;;;97.40;35.60;;;;;;;-2.62;53.15;100714.58;107482;1284;24214;-77
2022/03/22 03:49:10;;;;;;;85.80;34.20;;;;;;;-2.64;53.10;100706.67;107473;1284;22635;-73
2022/03/22 03:51:38;;;;;;;81.30;34.80;;;;;;;-2.64;53.25;100706.67;107506;1284;22553;-73
2022/03/22 03:54:05;;;;;;;92.60;39.70;;;;;;;-2.65;53.32;100705.30;107486;1284;22579;-78
2022/03/22 03:56:32;;;;;;;82.50;36.50;;;;;;;-2.62;54.01;100704.52;107262;1285;23254;-79
2022/03/22 03:58:59;;;;;;;76.80;34.20;;;;;;;-2.58;55.17;100704.05;107497;1284;22632;-81
2022/03/22 04:01:26;;;;;;;84.30;34.00;;;;;;;-2.55;56.30;100705.31;107191;1285;22635;-81
2022/03/22 04:03:53;;;;;;;94.60;37.90;;;;;;;-2.55;56.35;100705.65;107511;1284;22555;-77
2022/03/22 04:06:20;;;;;;;85.20;36.50;;;;;;;-2.56;55.88;100707.34;107495;1284;22713;-79
2022/03/22 04:08:47;;;;;;;93.70;39.60;;;;;;;-2.56;55.71;100710.08;107488;1284;22710;-80
2022/03/22 04:11:14;;;;;;;88.30;38.90;;;;;;;-2.56;55.47;100713.65;107524;1284;22592;-74
2022/03/22 04:13:41;;;;;;;81.80;37.20;;;;;;;-2.57;55.31;100715.34;107490;1284;22550;-73
2022/03/22 04:16:07;;;;;;;85.00;39.50;;;;;;;-2.58;55.15;100717.70;107514;1284;22626;-74
2022/03/22 04:18:34;;;;;;;92.70;41.30;;;;;;;-2.61;55.22;100719.19;107529;1284;24887;-74
2022/03/22 04:21:02;;;;;;;82.00;36.10;;;;;;;-2.64;55.17;100723.39;107476;1284;22574;-76
2022/03/22 04:23:30;;;;;;;81.30;34.50;;;;;;;-2.66;55.10;100723.69;107517;1284;24313;-80
2022/03/22 04:25:58;;;;;;;81.90;34.40;;;;;;;-2.68;55.13;100725.02;107465;1284;22608;-74
2022/03/22 04:33:56;;;;;;;90.50;36.50;;;;;;;-2.74;55.01;100726.94;107467;1285;22672;-77
2022/03/22 04:36:23;;;;;;;85.50;38.90;;;;;;;-2.75;55.49;100725.53;107494;1285;25146;-72
2022/03/22 04:38:50;;;;;;;88.70;41.40;;;;;;;-2.77;54.95;100728.73;107557;1285;25262;-72
2022/03/22 04:41:17;;;;;;;89.60;39.70;;;;;;;-2.79;55.17;100727.34;107199;1285;22592;-72
2022/03/22 04:43:45;;;;;;;90.50;39.50;;;;;;;-2.83;55.42;100729.45;107525;1285;24223;-72
2022/03/22 04:46:17;;;;;;;79.30;36.30;;;;;;;-2.85;55.44;100732.81;107559;1285;22598;-72
2022/03/22 04:48:46;;;;;;;77.70;35.60;;;;;;;-2.86;55.69;100736.38;107519;1285;22651;-78
2022/03/22 04:56:46;;;;;;;89.70;40.20;;;;;;;-2.90;55.51;100744.67;107462;1285;22613;-80
2022/03/22 04:59:24;;;;;;;78.60;37.60;;;;;;;-2.85;55.18;100750.05;107500;1285;22670;-78
2022/03/22 05:01:53;;;;;;;78.40;36.00;;;;;;;-2.80;56.30;100750.85;107506;1285;24239;-75
2022/03/22 05:04:21;;;;;;;78.40;35.10;;;;;;;-2.76;57.24;100753.33;107496;1285;24234;-82
2022/03/22 05:06:48;;;;;;;82.30;35.90;;;;;;;-2.74;57.55;100749.77;107194;1285;22721;-79
2022/03/22 05:09:15;;;;;;;90.40;37.00;;;;;;;-2.72;57.40;100749.48;107471;1285;22652;-75
2022/03/22 05:11:42;;;;;;;86.90;39.30;;;;;;;-2.67;57.11;100752.16;107496;1284;22690;-74
2022/03/22 05:14:09;;;;;;;92.80;39.90;;;;;;;-2.60;57.03;100749.75;107480;1284;22572;-78
2022/03/22 05:16:36;;;;;;;114.80;50.90;;;;;;;-2.54;57.10;100748.84;107492;1285;22858;-71
2022/03/22 05:19:06;;;;;;;108.50;48.40;;;;;;;-2.45;56.97;100749.39;107498;1285;23094;-79
2022/03/22 05:21:33;;;;;;;98.30;43.10;;;;;;;-2.35;56.82;100749.08;107501;1284;22578;-71
2022/03/22 05:24:00;;;;;;;89.00;37.90;;;;;;;-2.26;57.09;100754.04;107507;1285;24464;-71
2022/03/22 05:26:27;;;;;;;91.50;37.20;;;;;;;-2.15;57.02;100756.48;107470;1285;22589;-75
2022/03/22 05:28:54;;;;;;;83.70;35.30;;;;;;;-1.95;57.40;100759.41;107472;1285;22544;-73
2022/03/22 05:31:21;;;;;;;87.40;37.20;;;;;;;-1.71;57.67;100756.46;107498;1285;22575;-77
2022/03/22 05:33:49;;;;;;;90.80;37.30;;;;;;;-1.43;58.27;100756.44;107496;1285;24251;-72
2022/03/22 05:36:16;;;;;;;96.50;41.00;;;;;;;-1.10;58.48;100763.45;107474;1285;24278;-72
2022/03/22 05:38:43;;;;;;;99.10;42.30;;;;;;;-0.70;58.43;100760.29;107482;1284;22645;-76
2022/03/22 05:41:10;;;;;;;101.00;45.30;;;;;;;-0.30;58.47;100762.55;107475;1285;22566;-74
2022/03/22 05:43:38;;;;;;;104.50;46.50;;;;;;;0.06;58.39;100763.30;107523;1285;22600;-71
2022/03/22 05:46:05;;;;;;;103.60;46.70;;;;;;;0.43;58.30;100763.69;107496;1285;25514;-78
2022/03/22 05:48:33;;;;;;;118.90;54.80;;;;;;;0.65;58.21;100769.55;107482;1285;22684;-71
2022/03/22 05:51:00;;;;;;;108.80;51.80;;;;;;;0.96;58.06;100767.57;107495;1285;22638;-72
2022/03/22 05:53:27;;;;;;;115.40;53.80;;;;;;;1.21;57.62;100767.73;107483;1284;22633;-71
2022/03/22 05:55:54;;;;;;;113.00;52.50;;;;;;;1.47;57.33;100769.45;107186;1285;22572;-74
2022/03/22 05:58:21;;;;;;;118.70;57.40;;;;;;;1.73;56.98;100770.78;107452;1285;22580;-74
2022/03/22 06:00:48;;;;;;;114.30;54.80;;;;;;;1.95;56.18;100771.05;107453;1285;23410;-76
2022/03/22 06:03:15;;;;;;;112.20;54.40;;;;;;;2.23;55.46;100771.13;107482;1285;22681;-74
2022/03/22 06:05:45;;;;;;;122.80;54.80;;;;;;;2.57;54.70;100771.54;107451;1285;22760;-77
2022/03/22 06:08:12;;;;;;;113.20;49.90;;;;;;;2.81;53.60;100774.48;107474;1285;22578;-71
2022/03/22 06:10:39;;;;;;;101.10;49.40;;;;;;;2.83;53.25;100772.92;107433;1285;22713;-73
2022/03/22 06:13:06;;;;;;;108.40;50.90;;;;;;;2.76;52.96;100773.09;107441;1284;22680;-74
2022/03/22 06:15:33;;;;;;;107.20;51.80;;;;;;;2.67;52.68;100776.18;107444;1285;23148;-73
2022/03/22 06:18:03;;;;;;;110.10;50.70;;;;;;;2.57;52.55;100771.71;107478;1285;26532;-72
2022/03/22 06:20:35;;;;;;;107.10;48.60;;;;;;;2.53;52.32;100775.83;107472;1285;22581;-75
2022/03/22 06:23:06;;;;;;;129.60;53.30;;;;;;;2.47;52.06;100779.77;107462;1285;22609;-74
2022/03/22 06:25:34;;;;;;;147.10;57.80;;;;;;;2.36;52.06;100777.85;107413;1284;22604;-78
2022/03/22 06:28:04;;;;;;;164.20;62.00;;;;;;;2.32;51.85;100784.91;107750;1284;22585;-81
2022/03/22 06:30:32;;;;;;;152.90;56.70;;;;;;;2.30;51.89;100783.70;107668;1285;22548;-76
2022/03/22 06:33:01;;;;;;;156.20;57.20;;;;;;;2.32;51.83;100782.49;107687;1285;22579;-75
2022/03/22 06:35:30;;;;;;;127.00;50.40;;;;;;;2.38;51.76;100777.88;107697;1284;22721;-84
2022/03/22 06:38:00;;;;;;;116.20;48.10;;;;;;;2.48;51.77;100781.16;107728;1285;22555;-74
2022/03/22 06:40:29;;;;;;;113.20;47.20;;;;;;;2.58;51.43;100779.45;107704;1285;22565;-84
2022/03/22 06:42:59;;;;;;;115.10;46.10;;;;;;;2.70;51.16;100780.67;107718;1284;24236;-82
2022/03/22 06:45:27;;;;;;;108.20;45.10;;;;;;;2.81;51.08;100781.02;107730;1284;22581;-81
2022/03/22 06:47:54;;;;;;;122.20;50.90;;;;;;;2.95;51.02;100782.23;107729;1285;22639;-81
2022/03/22 06:50:21;;;;;;;109.30;46.60;;;;;;;3.06;50.84;100775.85;107733;1284;25536;-75
2022/03/22 06:52:49;;;;;;;87.80;38.00;;;;;;;3.17;50.50;100778.23;107726;1285;22613;-79
2022/03/22 06:55:18;;;;;;;77.60;34.20;;;;;;;3.33;50.22;100777.54;107702;1284;22544;-79
2022/03/22 06:57:45;;;;;;;70.50;35.40;;;;;;;3.49;49.19;100779.40;107741;1284;24126;-71
2022/03/22 07:00:15;;;;;;;64.70;28.40;;;;;;;3.63;48.85;100777.98;107731;1284;22541;-75
2022/03/22 07:02:42;;;;;;;59.80;28.70;;;;;;;3.80;48.55;100776.37;107739;1284;22632;-79
2022/03/22 07:05:10;;;;;;;59.90;30.30;;;;;;;3.99;47.30;100775.08;107702;1285;22575;-80
2022/03/22 07:07:39;;;;;;;62.50;30.70;;;;;;;4.16;47.83;100774.84;107722;1284;22645;-79
2022/03/22 07:10:08;;;;;;;76.30;37.90;;;;;;;4.29;47.54;100778.02;107731;1285;22535;-78
2022/03/22 07:13:08;;;;;;;82.80;39.30;;;;;;;4.42;47.00;100777.27;107760;1284;22548;-73
2022/03/22 07:15:37;;;;;;;57.90;30.20;;;;;;;4.59;46.40;100780.95;107577;1284;24930;-81
2022/03/22 07:18:12;;;;;;;73.30;29.60;;;;;;;4.74;45.78;100783.42;107755;1284;22660;-72
2022/03/22 07:20:39;;;;;;;58.50;28.70;;;;;;;4.91;45.07;100782.09;107758;1283;22563;-77
2022/03/22 07:23:06;;;;;;;58.80;28.50;;;;;;;5.05;45.30;100780.42;107712;1284;22670;-83
2022/03/22 07:25:33;;;;;;;61.30;29.10;;;;;;;5.16;45.08;100782.05;107731;1284;22732;-72
2022/03/22 07:28:01;;;;;;;73.70;35.90;;;;;;;5.30;44.77;100784.69;107761;1284;25993;-71
2022/03/22 07:30:28;;;;;;;83.70;44.90;;;;;;;5.45;43.70;100782.27;107770;1284;24309;-84
2022/03/22 07:32:55;;;;;;;75.70;34.60;;;;;;;5.62;43.48;100784.16;107771;1284;22667;-72
2022/03/22 07:35:23;;;;;;;72.30;33.30;;;;;;;5.79;43.21;100780.70;107726;1284;23828;-73
2022/03/22 07:37:50;;;;;;;62.00;29.60;;;;;;;5.94;41.94;100786.42;107472;1285;22641;-84
2022/03/22 07:40:18;;;;;;;59.00;27.80;;;;;;;6.09;42.16;100782.79;107701;1284;22555;-83
2022/03/22 07:42:45;;;;;;;56.80;29.70;;;;;;;6.22;42.89;100781.38;107510;1284;22584;-79
2022/03/22 07:45:12;;;;;;;57.00;29.50;;;;;;;6.33;42.55;100785.22;107712;1285;22676;-73
2022/03/22 07:47:41;;;;;;;49.10;25.80;;;;;;;6.45;42.03;100784.89;107749;1285;25515;-73
2022/03/22 07:53:00;;;;;;;57.50;30.70;;;;;;;6.69;41.21;100788.33;107724;1285;22581;-74
2022/03/22 07:55:31;;;;;;;45.90;24.80;;;;;;;6.81;41.26;100789.02;107736;1285;22563;-85
2022/03/22 07:57:59;;;;;;;42.10;24.20;;;;;;;6.96;39.94;100791.88;107737;1285;22571;-77
2022/03/22 08:00:29;;;;;;;47.60;23.50;;;;;;;7.09;39.88;100788.02;107795;1285;22580;-84
2022/03/22 08:02:58;;;;;;;65.60;32.00;;;;;;;7.21;39.99;100788.70;107680;1285;22647;-73
2022/03/22 08:05:27;;;;;;;47.60;23.40;;;;;;;7.32;39.87;100788.67;107710;1285;22554;-75
2022/03/22 08:07:54;;;;;;;44.70;23.40;;;;;;;7.45;38.00;100787.05;107723;1285;22662;-85
2022/03/22 08:10:22;;;;;;;40.40;20.40;;;;;;;7.56;37.44;100782.70;107728;1285;22568;-85
2022/03/22 08:12:49;;;;;;;39.90;21.70;;;;;;;7.67;37.03;100780.73;107741;1285;22587;-83
2022/03/22 08:15:17;;;;;;;41.00;22.20;;;;;;;7.76;37.12;100780.56;107702;1285;22622;-72
2022/03/22 08:17:45;;;;;;;41.30;21.80;;;;;;;7.86;37.15;100780.20;107696;1285;22667;-74
2022/03/22 08:20:13;;;;;;;42.30;21.90;;;;;;;7.96;36.72;100777.39;107696;1285;22531;-80
2022/03/22 08:22:54;;;;;;;37.10;20.60;;;;;;;8.06;36.89;100777.70;107715;1285;22700;-81
2022/03/22 08:25:29;;;;;;;40.40;21.90;;;;;;;8.14;36.20;100777.34;107721;1285;22552;-85
2022/03/22 08:27:59;;;;;;;37.00;21.30;;;;;;;8.24;36.80;100776.62;107731;1285;22573;-72
2022/03/22 08:30:27;;;;;;;42.40;23.40;;;;;;;8.32;36.48;100775.40;107707;1285;22557;-73
2022/03/22 08:32:58;;;;;;;33.70;19.60;;;;;;;8.41;36.41;100771.73;107718;1285;22577;-83
2022/03/22 08:35:26;;;;;;;35.50;20.30;;;;;;;8.52;35.17;100773.77;107693;1284;22639;-82
2022/03/22 08:37:55;;;;;;;29.70;18.00;;;;;;;8.62;35.46;100775.60;107701;1285;22547;-77
2022/03/22 08:40:23;;;;;;;42.20;22.30;;;;;;;8.70;35.22;100776.63;107739;1285;22734;-83
2022/03/22 08:42:53;;;;;;;42.80;22.80;;;;;;;8.76;34.77;100775.10;107729;1285;23979;-71
2022/03/22 08:45:22;;;;;;;39.80;21.20;;;;;;;8.86;34.92;100775.05;107745;1285;22602;-79
2022/03/22 08:47:51;;;;;;;34.70;19.60;;;;;;;8.91;34.40;100772.48;107733;1285;24295;-71
2022/03/22 08:50:21;;;;;;;33.40;18.90;;;;;;;9.00;34.20;100773.65;107722;1285;22644;-83
2022/03/22 08:52:49;;;;;;;34.30;20.40;;;;;;;9.07;33.73;100768.77;107729;1285;22578;-72
2022/03/22 08:55:18;;;;;;;36.50;21.90;;;;;;;9.11;34.11;100774.95;107761;1285;22662;-74
2022/03/22 08:57:48;;;;;;;43.30;22.60;;;;;;;9.16;33.81;100769.77;107724;1285;25276;-79
2022/03/22 09:00:18;;;;;;;37.80;22.20;;;;;;;9.24;34.22;100763.83;107735;1285;24286;-72
2022/03/22 09:02:47;;;;;;;41.10;22.80;;;;;;;9.33;34.05;100768.09;107719;1285;22740;-78
2022/03/22 09:08:02;;;;;;;53.50;24.70;;;;;;;9.50;33.45;100760.71;107718;1284;22541;-74
2022/03/22 09:10:29;;;;;;;47.10;25.60;;;;;;;9.56;33.71;100759.82;107704;1285;22580;-78
2022/03/22 09:12:57;;;;;;;34.60;20.60;;;;;;;9.65;33.78;100758.73;107729;1285;22705;-73
2022/03/22 09:15:27;;;;;;;37.50;23.00;;;;;;;9.72;34.10;100756.08;107725;1285;22555;-76
2022/03/22 09:17:56;;;;;;;45.00;23.10;;;;;;;9.76;33.78;100757.36;107707;1285;22600;-73
2022/03/22 09:20:25;;;;;;;50.50;25.30;;;;;;;9.81;34.16;100752.52;107730;1285;22591;-80
2022/03/22 09:22:53;;;;;;;39.80;22.60;;;;;;;9.88;33.58;100750.93;107704;1284;22725;-73
2022/03/22 09:25:24;;;;;;;41.10;24.20;;;;;;;9.95;32.88;100746.03;107698;1285;22549;-73
2022/03/22 09:27:51;;;;;;;39.50;22.30;;;;;;;10.02;33.02;100745.48;107706;1285;22565;-75
2022/03/22 09:30:18;;;;;;;36.40;22.90;;;;;;;10.12;32.41;100740.45;107689;1284;22766;-81
2022/03/22 09:32:46;;;;;;;37.50;20.80;;;;;;;10.23;32.45;100740.36;107690;1285;22707;-84
2022/03/22 09:35:19;;;;;;;34.60;20.50;;;;;;;10.30;32.36;100738.38;107692;1285;24303;-84
2022/03/22 09:37:48;;;;;;;33.80;19.60;;;;;;;10.40;32.31;100738.41;107705;1284;22704;-84
2022/03/22 09:40:18;;;;;;;33.10;18.90;;;;;;;10.51;32.30;100729.53;107729;1285;22578;-83
2022/03/22 09:42:46;;;;;;;28.70;17.50;;;;;;;10.61;32.07;100728.36;107736;1285;22573;-72
2022/03/22 09:45:28;;;;;;;33.10;18.70;;;;;;;10.70;31.53;100725.45;107744;1284;22715;-82
2022/03/22 09:47:56;;;;;;;38.50;21.30;;;;;;;10.79;31.58;100723.75;107699;1284;25335;-73
2022/03/22 09:53:12;;;;;;;32.80;20.10;;;;;;;10.94;31.27;100719.23;107687;1285;22571;-73
2022/03/22 09:55:40;;;;;;;31.80;20.20;;;;;;;10.96;30.96;100717.07;107713;1285;22601;-83
2022/03/22 09:58:07;;;;;;;32.90;19.80;;;;;;;11.02;29.93;100715.98;107692;1285;22756;-82
2022/03/22 10:00:34;;;;;;;33.70;19.90;;;;;;;11.08;30.04;100713.02;107751;1285;22729;-79
2022/03/22 10:03:01;;;;;;;30.00;16.90;;;;;;;11.14;30.29;100714.54;107702;1285;22570;-72
2022/03/22 10:05:29;;;;;;;30.50;18.40;;;;;;;11.23;30.50;100716.67;107706;1284;22546;-78
2022/03/22 10:07:58;;;;;;;32.10;18.90;;;;;;;11.32;30.64;100709.70;107743;1285;23090;-74
2022/03/22 10:10:28;;;;;;;28.50;17.30;;;;;;;11.40;30.20;100710.48;107732;1285;22665;-75
2022/03/22 10:13:04;;;;;;;27.50;17.20;;;;;;;11.49;29.18;100704.41;107720;1285;22657;-79
2022/03/22 10:15:32;;;;;;;30.40;19.10;;;;;;;11.53;29.09;100706.68;107696;1285;24234;-71
2022/03/22 10:18:05;;;;;;;38.30;23.10;;;;;;;11.63;28.73;100702.32;107718;1284;25677;-78
2022/03/22 10:20:33;;;;;;;;;;;;;;;11.73;28.04;100704.39;107741;1285;22540;-73
2022/03/22 10:23:02;;;;;;;35.20;21.40;;;;;;;11.75;28.23;100702.25;107675;1284;22555;-80
2022/03/22 10:25:31;;;;;;;33.40;19.70;;;;;;;11.80;28.85;100701.70;107691;1285;22547;-71
2022/03/22 10:28:01;;;;;;;33.50;19.90;;;;;;;11.89;28.96;100699.64;107694;1284;22582;-73
2022/03/22 10:30:29;;;;;;;32.70;18.80;;;;;;;11.97;29.08;100694.77;107713;1284;22962;-71
2022/03/22 10:32:57;;;;;;;35.40;19.90;;;;;;;12.02;29.06;100698.77;107692;1285;22755;-77
2022/03/22 10:35:36;;;;;;;33.90;21.60;;;;;;;12.11;29.26;100699.66;107734;1285;22666;-82
2022/03/22 10:38:06;;;;;;;33.40;20.40;;;;;;;12.20;29.59;100699.47;107718;1285;24306;-78
2022/03/22 10:40:40;;;;;;;35.90;19.00;;;;;;;12.26;28.34;100696.11;107701;1284;22591;-82
2022/03/22 10:43:12;;;;;;;31.10;19.00;;;;;;;12.28;28.91;100693.56;107534;1285;22670;-70
2022/03/22 10:45:52;;;;;;;27.30;18.60;;;;;;;12.31;28.71;100686.98;107720;1284;22642;-71
2022/03/22 10:48:23;;;;;;;34.30;22.00;;;;;;;12.34;28.68;100685.29;107712;1284;22629;-72
2022/03/22 10:50:51;;;;;;;32.80;20.00;;;;;;;12.38;29.24;100682.49;107686;1284;22575;-76
2022/03/22 10:53:20;;;;;;;42.60;21.20;;;;;;;12.48;29.28;100682.11;107728;1284;22554;-74
2022/03/22 10:55:48;;;;;;;32.80;19.70;;;;;;;12.55;29.08;100683.05;107676;1285;22608;-80
2022/03/22 10:58:21;;;;;;;32.70;20.30;;;;;;;12.59;29.12;100678.52;107687;1284;22589;-73
2022/03/22 11:00:49;;;;;;;36.80;22.10;;;;;;;12.61;28.99;100672.66;107752;1284;22543;-78
2022/03/22 11:03:17;;;;;;;35.00;18.60;;;;;;;12.69;28.45;100669.85;107726;1284;22712;-79
2022/03/22 11:05:55;;;;;;;35.40;21.60;;;;;;;12.74;27.82;100667.56;107699;1284;25492;-81
2022/03/22 11:08:25;;;;;;;38.30;20.60;;;;;;;12.82;28.19;100667.59;107723;1284;22571;-74
2022/03/22 11:10:54;;;;;;;33.10;18.10;;;;;;;12.90;28.01;100665.13;107711;1284;25557;-80
2022/03/22 11:13:25;;;;;;;30.10;19.00;;;;;;;12.95;28.15;100661.41;107735;1284;23131;-79
2022/03/22 11:15:55;;;;;;;30.20;19.30;;;;;;;12.97;27.86;100656.44;107702;1284;22580;-81
2022/03/22 11:18:23;;;;;;;34.10;20.30;;;;;;;12.94;27.99;100652.91;107718;1284;22794;-79
2022/03/22 11:20:59;;;;;;;39.50;25.70;;;;;;;12.96;28.09;100649.52;107730;1284;22551;-81
2022/03/22 11:23:31;;;;;;;33.40;18.80;;;;;;;13.03;27.96;100649.55;107695;1284;22647;-74
2022/03/22 11:26:08;;;;;;;29.70;17.90;;;;;;;13.10;27.78;100648.16;107673;1284;22609;-78
2022/03/22 11:28:36;;;;;;;24.80;16.30;;;;;;;13.17;27.38;100643.16;107542;1285;22569;-80
2022/03/22 11:31:04;;;;;;;29.50;18.00;;;;;;;13.18;27.05;100638.08;107707;1284;22546;-79
2022/03/22 11:36:26;;;;;;;30.20;21.20;;;;;;;13.41;27.32;100631.60;107673;1284;25335;-72
2022/03/22 11:38:55;;;;;;;32.80;18.50;;;;;;;13.55;27.00;100630.60;107704;1284;22681;-74
2022/03/22 11:44:18;;;;;;;28.40;18.00;;;;;;;13.78;26.56;100628.31;107684;1284;23148;-72
2022/03/22 11:46:48;;;;;;;25.80;17.30;;;;;;;13.85;26.72;100625.36;107685;1284;22686;-72